sensor_id;sensor_type;location;lat;lon;timestamp;temperature;humidity
41547;DHT22;27271;45.412;10.852;2023-04-03T00:01:30;8.00;99.90
41547;DHT22;27271;45.412;10.852;2023-04-03T00:04:52;7.90;99.90
41547;DHT22;27271;45.412;10.852;2023-04-03T00:08:14;7.90;99.90
41547;DHT22;27271;45.412;10.852;2023-04-03T00:11:36;7.80;99.90
41547;DHT22;27271;45.412;10.852;2023-04-03T00:14:58;7.60;99.90
41547;DHT22;27271;45.412;10.852;2023-04-03T00:18:21;7.60;99.90
41547;DHT22;27271;45.412;10.852;2023-04-03T00:21:43;7.70;99.90
41547;DHT22;27271;45.412;10.852;2023-04-03T00:25:05;7.70;99.90
41547;DHT22;27271;45.412;10.852;2023-04-03T00:28:27;7.70;99.90
41547;DHT22;27271;45.412;10.852;2023-04-03T00:31:49;7.60;99.90
41547;DHT22;27271;45.412;10.852;2023-04-03T00:35:12;7.50;99.90
41547;DHT22;27271;45.412;10.852;2023-04-03T00:38:37;7.40;99.90
41547;DHT22;27271;45.412;10.852;2023-04-03T00:42:00;7.40;99.90
41547;DHT22;27271;45.412;10.852;2023-04-03T00:45:33;7.20;99.90
41547;DHT22;27271;45.412;10.852;2023-04-03T00:48:56;7.20;1.00
41547;DHT22;27271;45.412;10.852;2023-04-03T00:52:21;7.10;1.90
41547;DHT22;27271;45.412;10.852;2023-04-03T00:55:47;7.00;1.00
41547;DHT22;27271;45.412;10.852;2023-04-03T00:59:19;6.90;74.00
41547;DHT22;27271;45.412;10.852;2023-04-03T01:02:44;6.80;99.90
41547;DHT22;27271;45.412;10.852;2023-04-03T01:06:09;6.80;99.90
41547;DHT22;27271;45.412;10.852;2023-04-03T01:09:31;6.80;99.90
41547;DHT22;27271;45.412;10.852;2023-04-03T01:12:54;6.70;57.60
41547;DHT22;27271;45.412;10.852;2023-04-03T01:16:18;6.80;1.00
41547;DHT22;27271;45.412;10.852;2023-04-03T01:19:44;6.70;86.20
41547;DHT22;27271;45.412;10.852;2023-04-03T01:26:32;7.00;99.90
41547;DHT22;27271;45.412;10.852;2023-04-03T01:29:54;6.90;99.90
41547;DHT22;27271;45.412;10.852;2023-04-03T01:33:17;6.90;99.90
41547;DHT22;27271;45.412;10.852;2023-04-03T01:36:41;6.80;1.00
41547;DHT22;27271;45.412;10.852;2023-04-03T01:40:04;6.70;1.00
41547;DHT22;27271;45.412;10.852;2023-04-03T01:43:27;6.60;1.00
41547;DHT22;27271;45.412;10.852;2023-04-03T01:46:50;6.50;1.00
41547;DHT22;27271;45.412;10.852;2023-04-03T01:50:14;6.40;1.00
41547;DHT22;27271;45.412;10.852;2023-04-03T01:53:37;6.30;1.00
41547;DHT22;27271;45.412;10.852;2023-04-03T01:56:59;6.20;1.00
41547;DHT22;27271;45.412;10.852;2023-04-03T02:00:21;6.20;1.00
41547;DHT22;27271;45.412;10.852;2023-04-03T02:03:44;6.10;1.00
41547;DHT22;27271;45.412;10.852;2023-04-03T02:07:06;6.00;16.70
41547;DHT22;27271;45.412;10.852;2023-04-03T02:10:28;6.00;32.50
41547;DHT22;27271;45.412;10.852;2023-04-03T02:13:51;5.90;70.10
41547;DHT22;27271;45.412;10.852;2023-04-03T02:17:13;5.80;99.90
41547;DHT22;27271;45.412;10.852;2023-04-03T02:20:35;5.90;99.90
41547;DHT22;27271;45.412;10.852;2023-04-03T02:23:58;5.80;99.90
41547;DHT22;27271;45.412;10.852;2023-04-03T02:27:20;5.80;99.90
41547;DHT22;27271;45.412;10.852;2023-04-03T02:30:43;5.80;99.90
41547;DHT22;27271;45.412;10.852;2023-04-03T02:34:05;5.80;99.90
41547;DHT22;27271;45.412;10.852;2023-04-03T02:37:29;5.80;99.90
41547;DHT22;27271;45.412;10.852;2023-04-03T02:40:52;5.80;99.90
41547;DHT22;27271;45.412;10.852;2023-04-03T02:44:14;5.80;96.00
41547;DHT22;27271;45.412;10.852;2023-04-03T02:47:37;5.90;15.70
41547;DHT22;27271;45.412;10.852;2023-04-03T02:50:59;6.10;1.00
41547;DHT22;27271;45.412;10.852;2023-04-03T02:54:21;6.10;1.00
41547;DHT22;27271;45.412;10.852;2023-04-03T02:57:48;6.20;1.00
41547;DHT22;27271;45.412;10.852;2023-04-03T03:01:11;6.10;2.10
41547;DHT22;27271;45.412;10.852;2023-04-03T03:04:34;6.00;99.90
41547;DHT22;27271;45.412;10.852;2023-04-03T03:07:57;6.00;99.90
41547;DHT22;27271;45.412;10.852;2023-04-03T03:11:19;5.90;99.90
41547;DHT22;27271;45.412;10.852;2023-04-03T03:14:41;5.80;99.90
41547;DHT22;27271;45.412;10.852;2023-04-03T03:18:04;5.70;99.90
41547;DHT22;27271;45.412;10.852;2023-04-03T03:21:27;5.60;99.90
41547;DHT22;27271;45.412;10.852;2023-04-03T03:24:49;5.50;99.90
41547;DHT22;27271;45.412;10.852;2023-04-03T03:28:11;5.40;99.90
41547;DHT22;27271;45.412;10.852;2023-04-03T03:31:33;5.40;99.90
41547;DHT22;27271;45.412;10.852;2023-04-03T03:34:56;5.30;99.90
41547;DHT22;27271;45.412;10.852;2023-04-03T03:38:18;5.30;99.90
41547;DHT22;27271;45.412;10.852;2023-04-03T03:41:40;5.40;99.90
41547;DHT22;27271;45.412;10.852;2023-04-03T03:45:03;5.40;99.90
41547;DHT22;27271;45.412;10.852;2023-04-03T03:48:25;5.50;99.90
41547;DHT22;27271;45.412;10.852;2023-04-03T03:51:47;5.50;99.90
41547;DHT22;27271;45.412;10.852;2023-04-03T03:55:09;5.50;99.90
41547;DHT22;27271;45.412;10.852;2023-04-03T03:58:32;5.50;99.90
41547;DHT22;27271;45.412;10.852;2023-04-03T04:01:56;5.50;99.90
41547;DHT22;27271;45.412;10.852;2023-04-03T04:05:18;5.40;99.90
41547;DHT22;27271;45.412;10.852;2023-04-03T04:08:41;5.40;99.90
41547;DHT22;27271;45.412;10.852;2023-04-03T04:12:05;5.30;99.90
41547;DHT22;27271;45.412;10.852;2023-04-03T04:15:29;5.20;99.90
41547;DHT22;27271;45.412;10.852;2023-04-03T04:18:51;5.20;99.90
41547;DHT22;27271;45.412;10.852;2023-04-03T04:22:14;5.20;99.90
41547;DHT22;27271;45.412;10.852;2023-04-03T04:25:37;5.30;99.90
41547;DHT22;27271;45.412;10.852;2023-04-03T04:29:00;5.50;99.90
41547;DHT22;27271;45.412;10.852;2023-04-03T04:32:26;5.60;99.90
41547;DHT22;27271;45.412;10.852;2023-04-03T04:35:49;5.70;99.90
41547;DHT22;27271;45.412;10.852;2023-04-03T04:39:14;5.80;99.90
41547;DHT22;27271;45.412;10.852;2023-04-03T04:42:36;5.80;99.90
41547;DHT22;27271;45.412;10.852;2023-04-03T04:46:06;6.10;1.00
41547;DHT22;27271;45.412;10.852;2023-04-03T04:49:33;6.30;1.00
41547;DHT22;27271;45.412;10.852;2023-04-03T04:52:56;6.40;99.90
41547;DHT22;27271;45.412;10.852;2023-04-03T04:56:18;6.40;99.90
41547;DHT22;27271;45.412;10.852;2023-04-03T04:59:41;6.40;99.90
41547;DHT22;27271;45.412;10.852;2023-04-03T05:03:03;6.60;99.90
41547;DHT22;27271;45.412;10.852;2023-04-03T05:06:25;6.60;1.00
41547;DHT22;27271;45.412;10.852;2023-04-03T05:09:49;6.70;99.90
41547;DHT22;27271;45.412;10.852;2023-04-03T05:13:14;6.90;99.90
41547;DHT22;27271;45.412;10.852;2023-04-03T05:16:36;7.00;99.90
41547;DHT22;27271;45.412;10.852;2023-04-03T05:19:58;7.00;99.90
41547;DHT22;27271;45.412;10.852;2023-04-03T05:23:22;7.00;99.90
41547;DHT22;27271;45.412;10.852;2023-04-03T05:26:44;7.10;99.90
41547;DHT22;27271;45.412;10.852;2023-04-03T05:30:09;7.30;99.90
41547;DHT22;27271;45.412;10.852;2023-04-03T05:33:33;7.50;99.90
41547;DHT22;27271;45.412;10.852;2023-04-03T05:36:56;7.90;1.00
41547;DHT22;27271;45.412;10.852;2023-04-03T05:40:20;8.30;5.90
41547;DHT22;27271;45.412;10.852;2023-04-03T05:43:46;9.90;99.90
41547;DHT22;27271;45.412;10.852;2023-04-03T05:47:08;12.20;1.00
41547;DHT22;27271;45.412;10.852;2023-04-03T05:50:30;14.60;1.00
41547;DHT22;27271;45.412;10.852;2023-04-03T05:54:01;16.60;1.00
41547;DHT22;27271;45.412;10.852;2023-04-03T05:57:26;18.20;1.00
41547;DHT22;27271;45.412;10.852;2023-04-03T06:00:48;18.10;1.00
41547;DHT22;27271;45.412;10.852;2023-04-03T06:04:11;18.60;1.00
41547;DHT22;27271;45.412;10.852;2023-04-03T06:07:34;18.90;1.00
41547;DHT22;27271;45.412;10.852;2023-04-03T06:10:56;19.20;1.00
41547;DHT22;27271;45.412;10.852;2023-04-03T06:14:19;19.40;1.00
41547;DHT22;27271;45.412;10.852;2023-04-03T06:17:41;19.30;1.00
41547;DHT22;27271;45.412;10.852;2023-04-03T06:21:03;19.00;1.00
41547;DHT22;27271;45.412;10.852;2023-04-03T06:24:26;18.30;1.00
41547;DHT22;27271;45.412;10.852;2023-04-03T06:27:48;18.50;1.00
41547;DHT22;27271;45.412;10.852;2023-04-03T06:31:10;18.10;1.00
41547;DHT22;27271;45.412;10.852;2023-04-03T06:34:35;18.10;1.00
41547;DHT22;27271;45.412;10.852;2023-04-03T06:37:57;17.40;1.00
41547;DHT22;27271;45.412;10.852;2023-04-03T06:41:19;17.20;1.00
41547;DHT22;27271;45.412;10.852;2023-04-03T06:44:41;17.10;1.00
41547;DHT22;27271;45.412;10.852;2023-04-03T06:48:03;17.30;1.00
41547;DHT22;27271;45.412;10.852;2023-04-03T06:51:27;17.00;1.00
41547;DHT22;27271;45.412;10.852;2023-04-03T06:54:49;17.00;1.00
41547;DHT22;27271;45.412;10.852;2023-04-03T06:58:13;17.10;1.00
41547;DHT22;27271;45.412;10.852;2023-04-03T07:01:36;17.40;1.00
41547;DHT22;27271;45.412;10.852;2023-04-03T07:04:59;17.70;1.00
41547;DHT22;27271;45.412;10.852;2023-04-03T07:08:21;16.90;1.00
41547;DHT22;27271;45.412;10.852;2023-04-03T07:11:44;17.50;1.00
41547;DHT22;27271;45.412;10.852;2023-04-03T07:15:07;17.90;1.00
41547;DHT22;27271;45.412;10.852;2023-04-03T07:18:30;17.90;1.00
41547;DHT22;27271;45.412;10.852;2023-04-03T07:21:52;18.10;1.00
41547;DHT22;27271;45.412;10.852;2023-04-03T07:25:14;18.20;1.00
41547;DHT22;27271;45.412;10.852;2023-04-03T07:28:36;18.30;1.00
41547;DHT22;27271;45.412;10.852;2023-04-03T07:32:00;17.80;1.00
41547;DHT22;27271;45.412;10.852;2023-04-03T07:35:22;18.20;1.00
41547;DHT22;27271;45.412;10.852;2023-04-03T07:38:45;17.50;1.00
41547;DHT22;27271;45.412;10.852;2023-04-03T07:42:07;17.20;1.00
41547;DHT22;27271;45.412;10.852;2023-04-03T07:45:30;17.10;1.00
41547;DHT22;27271;45.412;10.852;2023-04-03T07:48:52;17.60;1.00
41547;DHT22;27271;45.412;10.852;2023-04-03T07:52:14;17.60;1.00
41547;DHT22;27271;45.412;10.852;2023-04-03T07:55:37;17.10;1.00
41547;DHT22;27271;45.412;10.852;2023-04-03T07:59:04;17.40;1.00
41547;DHT22;27271;45.412;10.852;2023-04-03T08:02:27;17.50;1.00
41547;DHT22;27271;45.412;10.852;2023-04-03T08:05:49;18.00;1.00
41547;DHT22;27271;45.412;10.852;2023-04-03T08:09:12;18.80;1.00
41547;DHT22;27271;45.412;10.852;2023-04-03T08:12:35;18.90;1.00
41547;DHT22;27271;45.412;10.852;2023-04-03T08:16:10;19.30;1.00
41547;DHT22;27271;45.412;10.852;2023-04-03T08:19:33;18.70;1.00
41547;DHT22;27271;45.412;10.852;2023-04-03T08:22:55;20.00;1.00
41547;DHT22;27271;45.412;10.852;2023-04-03T08:26:20;20.50;1.00
41547;DHT22;27271;45.412;10.852;2023-04-03T08:29:43;19.40;1.00
41547;DHT22;27271;45.412;10.852;2023-04-03T08:33:05;18.30;1.00
41547;DHT22;27271;45.412;10.852;2023-04-03T08:36:28;18.40;1.00
41547;DHT22;27271;45.412;10.852;2023-04-03T08:39:51;18.00;1.00
41547;DHT22;27271;45.412;10.852;2023-04-03T08:43:30;18.30;1.00
41547;DHT22;27271;45.412;10.852;2023-04-03T08:47:24;18.50;1.00
41547;DHT22;27271;45.412;10.852;2023-04-03T08:50:54;19.00;1.00
41547;DHT22;27271;45.412;10.852;2023-04-03T08:54:53;20.20;1.00
41547;DHT22;27271;45.412;10.852;2023-04-03T09:01:42;20.40;1.00
41547;DHT22;27271;45.412;10.852;2023-04-03T09:09:36;19.10;1.00
41547;DHT22;27271;45.412;10.852;2023-04-03T09:13:13;19.20;1.00
41547;DHT22;27271;45.412;10.852;2023-04-03T09:16:57;19.90;1.00
41547;DHT22;27271;45.412;10.852;2023-04-03T09:24:05;19.10;1.00
41547;DHT22;27271;45.412;10.852;2023-04-03T09:27:29;18.10;1.00
41547;DHT22;27271;45.412;10.852;2023-04-03T09:30:51;17.60;1.00
41547;DHT22;27271;45.412;10.852;2023-04-03T09:34:32;18.70;1.00
41547;DHT22;27271;45.412;10.852;2023-04-03T09:38:01;20.10;1.00
41547;DHT22;27271;45.412;10.852;2023-04-03T09:41:24;20.70;1.00
41547;DHT22;27271;45.412;10.852;2023-04-03T09:44:55;17.70;1.00
41547;DHT22;27271;45.412;10.852;2023-04-03T09:48:25;16.30;1.00
41547;DHT22;27271;45.412;10.852;2023-04-03T09:51:52;16.70;1.00
41547;DHT22;27271;45.412;10.852;2023-04-03T09:55:27;16.40;1.00
41547;DHT22;27271;45.412;10.852;2023-04-03T09:59:07;17.80;1.00
41547;DHT22;27271;45.412;10.852;2023-04-03T10:02:40;16.70;1.00
41547;DHT22;27271;45.412;10.852;2023-04-03T10:06:22;16.00;1.00
41547;DHT22;27271;45.412;10.852;2023-04-03T10:09:58;15.30;1.00
41547;DHT22;27271;45.412;10.852;2023-04-03T10:13:20;15.70;1.00
41547;DHT22;27271;45.412;10.852;2023-04-03T10:16:52;16.30;1.00
41547;DHT22;27271;45.412;10.852;2023-04-03T10:20:26;16.80;1.00
41547;DHT22;27271;45.412;10.852;2023-04-03T10:31:41;17.30;1.00
41547;DHT22;27271;45.412;10.852;2023-04-03T10:42:39;18.40;1.00
41547;DHT22;27271;45.412;10.852;2023-04-03T10:46:13;17.60;1.00
41547;DHT22;27271;45.412;10.852;2023-04-03T10:50:00;16.40;1.00
41547;DHT22;27271;45.412;10.852;2023-04-03T11:00:46;18.20;1.00
41547;DHT22;27271;45.412;10.852;2023-04-03T11:04:10;16.30;1.00
41547;DHT22;27271;45.412;10.852;2023-04-03T11:07:38;16.90;1.00
41547;DHT22;27271;45.412;10.852;2023-04-03T11:11:12;17.50;1.00
41547;DHT22;27271;45.412;10.852;2023-04-03T11:14:38;17.60;1.00
41547;DHT22;27271;45.412;10.852;2023-04-03T11:18:12;18.50;1.00
41547;DHT22;27271;45.412;10.852;2023-04-03T11:21:46;18.10;1.00
41547;DHT22;27271;45.412;10.852;2023-04-03T11:28:32;18.60;1.00
41547;DHT22;27271;45.412;10.852;2023-04-03T11:36:23;17.70;1.00
41547;DHT22;27271;45.412;10.852;2023-04-03T11:39:59;17.70;1.00
41547;DHT22;27271;45.412;10.852;2023-04-03T11:43:27;17.60;1.00
41547;DHT22;27271;45.412;10.852;2023-04-03T11:46:59;17.10;1.00
41547;DHT22;27271;45.412;10.852;2023-04-03T11:58:15;17.30;1.00
41547;DHT22;27271;45.412;10.852;2023-04-03T12:01:47;16.70;1.00
41547;DHT22;27271;45.412;10.852;2023-04-03T12:05:28;17.10;1.00
41547;DHT22;27271;45.412;10.852;2023-04-03T12:08:52;16.90;1.00
41547;DHT22;27271;45.412;10.852;2023-04-03T12:12:34;16.90;1.00
41547;DHT22;27271;45.412;10.852;2023-04-03T12:15:58;17.50;1.00
41547;DHT22;27271;45.412;10.852;2023-04-03T12:28:42;16.30;1.00
41547;DHT22;27271;45.412;10.852;2023-04-03T12:32:43;16.10;1.00
41547;DHT22;27271;45.412;10.852;2023-04-03T12:45:57;16.40;1.00
41547;DHT22;27271;45.412;10.852;2023-04-03T12:50:23;17.10;1.00
41547;DHT22;27271;45.412;10.852;2023-04-03T12:54:16;17.10;1.00
41547;DHT22;27271;45.412;10.852;2023-04-03T12:58:27;17.00;1.00
41547;DHT22;27271;45.412;10.852;2023-04-03T13:07:21;16.60;1.00
41547;DHT22;27271;45.412;10.852;2023-04-03T13:11:03;16.70;1.00
41547;DHT22;27271;45.412;10.852;2023-04-03T13:18:54;16.50;1.00
41547;DHT22;27271;45.412;10.852;2023-04-03T13:23:14;16.50;1.00
41547;DHT22;27271;45.412;10.852;2023-04-03T13:27:10;15.90;1.00
41547;DHT22;27271;45.412;10.852;2023-04-03T13:34:55;15.70;1.00
41547;DHT22;27271;45.412;10.852;2023-04-03T13:39:02;15.60;1.00
41547;DHT22;27271;45.412;10.852;2023-04-03T13:47:18;15.20;1.00
41547;DHT22;27271;45.412;10.852;2023-04-03T13:51:22;15.60;1.00
41547;DHT22;27271;45.412;10.852;2023-04-03T13:55:01;15.80;1.00
41547;DHT22;27271;45.412;10.852;2023-04-03T14:04:09;15.90;1.00
41547;DHT22;27271;45.412;10.852;2023-04-03T14:08:37;16.20;1.00
41547;DHT22;27271;45.412;10.852;2023-04-03T14:12:28;16.20;1.00
41547;DHT22;27271;45.412;10.852;2023-04-03T14:29:51;16.60;1.00
41547;DHT22;27271;45.412;10.852;2023-04-03T14:33:17;16.60;1.00
41547;DHT22;27271;45.412;10.852;2023-04-03T14:37:30;16.30;1.00
41547;DHT22;27271;45.412;10.852;2023-04-03T14:40:57;16.40;1.00
41547;DHT22;27271;45.412;10.852;2023-04-03T14:45:46;16.00;1.00
41547;DHT22;27271;45.412;10.852;2023-04-03T14:49:33;15.60;1.00
41547;DHT22;27271;45.412;10.852;2023-04-03T14:53:12;15.80;1.00
41547;DHT22;27271;45.412;10.852;2023-04-03T14:57:04;15.60;1.00
41547;DHT22;27271;45.412;10.852;2023-04-03T15:01:04;15.30;1.00
41547;DHT22;27271;45.412;10.852;2023-04-03T15:05:01;15.40;1.00
41547;DHT22;27271;45.412;10.852;2023-04-03T15:09:04;15.10;1.00
41547;DHT22;27271;45.412;10.852;2023-04-03T15:16:59;14.30;1.00
41547;DHT22;27271;45.412;10.852;2023-04-03T15:21:13;14.20;1.00
41547;DHT22;27271;45.412;10.852;2023-04-03T15:24:47;14.30;1.00
41547;DHT22;27271;45.412;10.852;2023-04-03T15:28:40;14.50;1.00
41547;DHT22;27271;45.412;10.852;2023-04-03T15:32:05;14.50;1.00
41547;DHT22;27271;45.412;10.852;2023-04-03T15:36:14;14.60;1.00
41547;DHT22;27271;45.412;10.852;2023-04-03T15:40:04;14.50;1.00
41547;DHT22;27271;45.412;10.852;2023-04-03T15:43:35;14.40;1.00
41547;DHT22;27271;45.412;10.852;2023-04-03T15:47:14;14.40;1.00
41547;DHT22;27271;45.412;10.852;2023-04-03T15:50:41;14.40;1.00
41547;DHT22;27271;45.412;10.852;2023-04-03T15:54:35;14.20;1.00
41547;DHT22;27271;45.412;10.852;2023-04-03T15:58:25;14.40;1.00
41547;DHT22;27271;45.412;10.852;2023-04-03T16:05:39;14.20;1.00
41547;DHT22;27271;45.412;10.852;2023-04-03T16:09:10;14.00;1.00
41547;DHT22;27271;45.412;10.852;2023-04-03T16:13:06;13.70;1.00
41547;DHT22;27271;45.412;10.852;2023-04-03T16:17:00;13.60;1.00
41547;DHT22;27271;45.412;10.852;2023-04-03T16:20:49;13.70;1.00
41547;DHT22;27271;45.412;10.852;2023-04-03T16:24:32;13.80;1.00
41547;DHT22;27271;45.412;10.852;2023-04-03T16:28:15;13.60;1.00
41547;DHT22;27271;45.412;10.852;2023-04-03T16:31:50;13.70;1.00
41547;DHT22;27271;45.412;10.852;2023-04-03T16:36:13;13.70;1.00
41547;DHT22;27271;45.412;10.852;2023-04-03T16:40:18;13.60;1.00
41547;DHT22;27271;45.412;10.852;2023-04-03T16:44:12;13.50;1.00
41547;DHT22;27271;45.412;10.852;2023-04-03T16:48:10;13.30;1.00
41547;DHT22;27271;45.412;10.852;2023-04-03T16:51:47;13.20;1.00
41547;DHT22;27271;45.412;10.852;2023-04-03T16:55:29;13.00;1.00
41547;DHT22;27271;45.412;10.852;2023-04-03T16:59:12;12.80;1.00
41547;DHT22;27271;45.412;10.852;2023-04-03T17:02:50;12.60;1.00
41547;DHT22;27271;45.412;10.852;2023-04-03T17:06:31;12.50;1.00
41547;DHT22;27271;45.412;10.852;2023-04-03T17:10:56;12.40;1.00
41547;DHT22;27271;45.412;10.852;2023-04-03T17:20:16;12.30;1.00
41547;DHT22;27271;45.412;10.852;2023-04-03T17:24:18;12.20;1.00
41547;DHT22;27271;45.412;10.852;2023-04-03T17:27:54;12.20;1.00
41547;DHT22;27271;45.412;10.852;2023-04-03T17:32:04;12.00;1.00
41547;DHT22;27271;45.412;10.852;2023-04-03T17:36:32;12.00;1.00
41547;DHT22;27271;45.412;10.852;2023-04-03T17:44:36;11.90;1.00
41547;DHT22;27271;45.412;10.852;2023-04-03T17:48:16;11.80;1.00
41547;DHT22;27271;45.412;10.852;2023-04-03T17:52:12;11.80;1.00
41547;DHT22;27271;45.412;10.852;2023-04-03T17:55:47;11.80;1.00
41547;DHT22;27271;45.412;10.852;2023-04-03T17:59:47;11.70;1.00
41547;DHT22;27271;45.412;10.852;2023-04-03T18:03:29;11.70;1.00
41547;DHT22;27271;45.412;10.852;2023-04-03T18:07:06;11.70;1.00
41547;DHT22;27271;45.412;10.852;2023-04-03T18:10:46;11.60;1.00
41547;DHT22;27271;45.412;10.852;2023-04-03T18:14:24;11.50;1.00
41547;DHT22;27271;45.412;10.852;2023-04-03T18:17:47;11.50;1.00
41547;DHT22;27271;45.412;10.852;2023-04-03T18:21:25;11.50;1.00
41547;DHT22;27271;45.412;10.852;2023-04-03T18:25:31;11.40;1.00
41547;DHT22;27271;45.412;10.852;2023-04-03T18:29:04;11.40;1.00
41547;DHT22;27271;45.412;10.852;2023-04-03T18:33:07;11.20;1.00
41547;DHT22;27271;45.412;10.852;2023-04-03T18:37:02;11.10;1.00
41547;DHT22;27271;45.412;10.852;2023-04-03T18:40:48;11.20;1.00
41547;DHT22;27271;45.412;10.852;2023-04-03T18:44:55;11.10;1.00
41547;DHT22;27271;45.412;10.852;2023-04-03T18:48:44;11.10;1.00
41547;DHT22;27271;45.412;10.852;2023-04-03T18:52:16;11.00;1.00
41547;DHT22;27271;45.412;10.852;2023-04-03T18:55:58;11.00;1.00
41547;DHT22;27271;45.412;10.852;2023-04-03T19:03:46;10.80;1.00
41547;DHT22;27271;45.412;10.852;2023-04-03T19:08:03;10.80;1.00
41547;DHT22;27271;45.412;10.852;2023-04-03T19:11:33;10.80;1.00
41547;DHT22;27271;45.412;10.852;2023-04-03T19:15:21;10.80;1.00
41547;DHT22;27271;45.412;10.852;2023-04-03T19:18:48;10.80;1.00
41547;DHT22;27271;45.412;10.852;2023-04-03T19:22:40;10.60;1.00
41547;DHT22;27271;45.412;10.852;2023-04-03T19:26:41;10.20;1.00
41547;DHT22;27271;45.412;10.852;2023-04-03T19:30:19;9.90;1.00
41547;DHT22;27271;45.412;10.852;2023-04-03T19:34:40;9.60;1.00
41547;DHT22;27271;45.412;10.852;2023-04-03T19:38:28;9.30;1.00
41547;DHT22;27271;45.412;10.852;2023-04-03T19:41:57;9.20;1.00
41547;DHT22;27271;45.412;10.852;2023-04-03T19:45:54;9.00;1.00
41547;DHT22;27271;45.412;10.852;2023-04-03T19:49:47;8.90;1.00
41547;DHT22;27271;45.412;10.852;2023-04-03T19:53:13;8.70;1.00
41547;DHT22;27271;45.412;10.852;2023-04-03T19:56:47;8.70;1.00
41547;DHT22;27271;45.412;10.852;2023-04-03T20:00:10;8.70;1.00
41547;DHT22;27271;45.412;10.852;2023-04-03T20:03:32;8.80;1.00
41547;DHT22;27271;45.412;10.852;2023-04-03T20:06:59;8.80;1.00
41547;DHT22;27271;45.412;10.852;2023-04-03T20:10:42;8.80;1.00
41547;DHT22;27271;45.412;10.852;2023-04-03T20:14:33;8.80;1.00
41547;DHT22;27271;45.412;10.852;2023-04-03T20:18:15;8.80;1.00
41547;DHT22;27271;45.412;10.852;2023-04-03T20:26:06;9.00;1.00
41547;DHT22;27271;45.412;10.852;2023-04-03T20:29:52;9.00;1.00
41547;DHT22;27271;45.412;10.852;2023-04-03T20:33:20;9.00;1.00
41547;DHT22;27271;45.412;10.852;2023-04-03T20:37:04;8.90;1.00
41547;DHT22;27271;45.412;10.852;2023-04-03T20:40:37;8.80;1.00
41547;DHT22;27271;45.412;10.852;2023-04-03T20:48:36;8.60;1.00
41547;DHT22;27271;45.412;10.852;2023-04-03T20:52:25;8.80;1.00
41547;DHT22;27271;45.412;10.852;2023-04-03T20:56:21;8.90;1.00
41547;DHT22;27271;45.412;10.852;2023-04-03T21:00:39;9.20;1.00
41547;DHT22;27271;45.412;10.852;2023-04-03T21:22:48;9.00;1.00
41547;DHT22;27271;45.412;10.852;2023-04-03T21:26:51;8.80;1.00
41547;DHT22;27271;45.412;10.852;2023-04-03T21:30:55;8.90;1.00
41547;DHT22;27271;45.412;10.852;2023-04-03T21:34:43;8.60;1.00
41547;DHT22;27271;45.412;10.852;2023-04-03T21:38:54;8.50;1.00
41547;DHT22;27271;45.412;10.852;2023-04-03T21:52:31;8.40;1.00
41547;DHT22;27271;45.412;10.852;2023-04-03T22:01:16;8.60;1.00
41547;DHT22;27271;45.412;10.852;2023-04-03T22:18:50;8.40;1.00
41547;DHT22;27271;45.412;10.852;2023-04-03T22:23:10;8.30;1.00
41547;DHT22;27271;45.412;10.852;2023-04-03T22:27:39;8.10;1.00
41547;DHT22;27271;45.412;10.852;2023-04-03T22:32:17;7.90;1.00
41547;DHT22;27271;45.412;10.852;2023-04-03T22:36:50;7.90;1.00
41547;DHT22;27271;45.412;10.852;2023-04-03T22:40:30;7.90;1.00
41547;DHT22;27271;45.412;10.852;2023-04-03T22:43:57;7.70;1.00
41547;DHT22;27271;45.412;10.852;2023-04-03T22:48:22;7.50;1.00
41547;DHT22;27271;45.412;10.852;2023-04-03T22:52:19;7.70;1.00
41547;DHT22;27271;45.412;10.852;2023-04-03T22:55:59;7.70;1.00
41547;DHT22;27271;45.412;10.852;2023-04-03T22:59:34;7.80;1.00
41547;DHT22;27271;45.412;10.852;2023-04-03T23:02:59;7.80;1.00
41547;DHT22;27271;45.412;10.852;2023-04-03T23:06:33;7.70;1.00
41547;DHT22;27271;45.412;10.852;2023-04-03T23:10:29;7.60;1.00
41547;DHT22;27271;45.412;10.852;2023-04-03T23:13:52;7.40;1.00
41547;DHT22;27271;45.412;10.852;2023-04-03T23:17:15;7.20;1.00
41547;DHT22;27271;45.412;10.852;2023-04-03T23:20:52;7.10;1.00
41547;DHT22;27271;45.412;10.852;2023-04-03T23:24:30;6.80;1.00
41547;DHT22;27271;45.412;10.852;2023-04-03T23:28:02;6.60;1.00
41547;DHT22;27271;45.412;10.852;2023-04-03T23:31:56;6.60;1.00
41547;DHT22;27271;45.412;10.852;2023-04-03T23:40:05;6.30;1.00
41547;DHT22;27271;45.412;10.852;2023-04-03T23:43:46;6.20;1.00
41547;DHT22;27271;45.412;10.852;2023-04-03T23:47:34;6.00;1.00
41547;DHT22;27271;45.412;10.852;2023-04-03T23:51:23;5.90;1.00
41547;DHT22;27271;45.412;10.852;2023-04-03T23:54:46;5.80;1.00
41547;DHT22;27271;45.412;10.852;2023-04-03T23:58:10;5.60;1.00
